sensor_id;sensor_type;location;lat;lon;timestamp;pressure;altitude;pressure_sealevel;temperature;humidity
77120;BME280;66073;47.730;9.352;2023-05-10T00:01:05;96257.72;;;13.59;89.92
77120;BME280;66073;47.730;9.352;2023-05-10T00:03:31;96259.25;;;13.74;89.45
77120;BME280;66073;47.730;9.352;2023-05-10T00:05:56;96261.59;;;13.53;88.19
77120;BME280;66073;47.730;9.352;2023-05-10T00:08:22;96263.31;;;13.49;88.59
77120;BME280;66073;47.730;9.352;2023-05-10T00:10:47;96269.28;;;13.46;89.18
77120;BME280;66073;47.730;9.352;2023-05-10T00:13:13;96260.38;;;13.37;88.98
77120;BME280;66073;47.730;9.352;2023-05-10T00:15:38;96266.06;;;13.22;88.79
77120;BME280;66073;47.730;9.352;2023-05-10T00:18:04;96263.41;;;12.95;89.03
77120;BME280;66073;47.730;9.352;2023-05-10T00:20:29;96258.09;;;13.03;88.68
77120;BME280;66073;47.730;9.352;2023-05-10T00:22:55;96268.16;;;13.11;88.69
77120;BME280;66073;47.730;9.352;2023-05-10T00:25:20;96259.19;;;13.02;88.47
77120;BME280;66073;47.730;9.352;2023-05-10T00:27:47;96260.81;;;12.89;88.80
77120;BME280;66073;47.730;9.352;2023-05-10T00:30:12;96254.47;;;12.85;89.14
77120;BME280;66073;47.730;9.352;2023-05-10T00:32:38;96254.84;;;12.79;88.25
77120;BME280;66073;47.730;9.352;2023-05-10T00:35:04;96257.63;;;12.74;88.83
77120;BME280;66073;47.730;9.352;2023-05-10T00:37:29;96259.41;;;12.78;88.92
77120;BME280;66073;47.730;9.352;2023-05-10T00:39:55;96258.72;;;12.86;89.14
77120;BME280;66073;47.730;9.352;2023-05-10T00:42:21;96262.78;;;12.70;89.07
77120;BME280;66073;47.730;9.352;2023-05-10T00:44:47;96263.19;;;12.77;88.51
77120;BME280;66073;47.730;9.352;2023-05-10T00:47:13;96263.78;;;12.74;88.10
77120;BME280;66073;47.730;9.352;2023-05-10T00:49:39;96268.34;;;12.60;87.90
77120;BME280;66073;47.730;9.352;2023-05-10T00:52:06;96269.94;;;12.61;88.13
77120;BME280;66073;47.730;9.352;2023-05-10T00:54:31;96271.31;;;12.59;87.75
77120;BME280;66073;47.730;9.352;2023-05-10T00:56:57;96275.88;;;12.85;87.29
77120;BME280;66073;47.730;9.352;2023-05-10T00:59:23;96274.69;;;12.91;87.11
77120;BME280;66073;47.730;9.352;2023-05-10T01:01:49;96280.44;;;12.85;86.63
77120;BME280;66073;47.730;9.352;2023-05-10T01:04:15;96275.69;;;12.82;86.84
77120;BME280;66073;47.730;9.352;2023-05-10T01:06:41;96277.75;;;12.85;86.82
77120;BME280;66073;47.730;9.352;2023-05-10T01:09:07;96273.09;;;12.63;87.42
77120;BME280;66073;47.730;9.352;2023-05-10T01:11:35;96270.53;;;12.85;87.55
77120;BME280;66073;47.730;9.352;2023-05-10T01:14:02;96283.13;;;12.71;86.71
77120;BME280;66073;47.730;9.352;2023-05-10T01:16:31;96283.25;;;12.66;86.85
77120;BME280;66073;47.730;9.352;2023-05-10T01:18:58;96290.69;;;12.83;85.72
77120;BME280;66073;47.730;9.352;2023-05-10T01:21:33;96296.91;;;12.51;87.05
77120;BME280;66073;47.730;9.352;2023-05-10T01:29:51;96298.09;;;12.59;86.74
77120;BME280;66073;47.730;9.352;2023-05-10T01:35:54;96303.25;;;12.55;86.63
77120;BME280;66073;47.730;9.352;2023-05-10T01:44:17;96312.63;;;12.39;88.03
77120;BME280;66073;47.730;9.352;2023-05-10T01:46:40;96307.59;;;12.37;87.46
77120;BME280;66073;47.730;9.352;2023-05-10T01:49:16;96315.50;;;12.42;87.16
77120;BME280;66073;47.730;9.352;2023-05-10T01:51:50;96318.50;;;12.41;87.95
77120;BME280;66073;47.730;9.352;2023-05-10T01:54:19;96318.09;;;12.34;87.38
77120;BME280;66073;47.730;9.352;2023-05-10T01:56:52;96323.47;;;12.48;87.14
77120;BME280;66073;47.730;9.352;2023-05-10T01:59:22;96319.13;;;12.65;86.58
77120;BME280;66073;47.730;9.352;2023-05-10T02:01:50;96323.44;;;12.34;86.98
77120;BME280;66073;47.730;9.352;2023-05-10T02:04:18;96325.00;;;12.35;87.13
77120;BME280;66073;47.730;9.352;2023-05-10T02:06:46;96328.03;;;12.47;86.89
77120;BME280;66073;47.730;9.352;2023-05-10T02:09:14;96328.91;;;12.56;86.66
77120;BME280;66073;47.730;9.352;2023-05-10T02:11:44;96328.22;;;12.51;86.61
77120;BME280;66073;47.730;9.352;2023-05-10T02:14:11;96340.22;;;12.53;86.30
77120;BME280;66073;47.730;9.352;2023-05-10T02:16:39;96333.97;;;12.44;86.60
77120;BME280;66073;47.730;9.352;2023-05-10T02:19:06;96334.97;;;12.48;86.91
77120;BME280;66073;47.730;9.352;2023-05-10T02:21:35;96342.56;;;12.73;86.07
77120;BME280;66073;47.730;9.352;2023-05-10T02:24:03;96340.53;;;12.52;86.31
77120;BME280;66073;47.730;9.352;2023-05-10T02:26:32;96336.47;;;12.54;86.47
77120;BME280;66073;47.730;9.352;2023-05-10T02:29:02;96347.53;;;12.34;85.81
77120;BME280;66073;47.730;9.352;2023-05-10T02:31:31;96348.03;;;12.50;87.08
77120;BME280;66073;47.730;9.352;2023-05-10T02:33:59;96343.88;;;12.43;87.09
77120;BME280;66073;47.730;9.352;2023-05-10T02:36:27;96343.75;;;12.35;87.74
77120;BME280;66073;47.730;9.352;2023-05-10T02:38:53;96341.41;;;12.15;88.53
77120;BME280;66073;47.730;9.352;2023-05-10T02:41:20;96346.22;;;12.31;88.80
77120;BME280;66073;47.730;9.352;2023-05-10T02:43:50;96345.69;;;12.16;88.76
77120;BME280;66073;47.730;9.352;2023-05-10T02:46:17;96348.09;;;12.31;88.03
77120;BME280;66073;47.730;9.352;2023-05-10T02:48:43;96347.03;;;12.46;87.90
77120;BME280;66073;47.730;9.352;2023-05-10T02:51:12;96336.31;;;12.13;89.02
77120;BME280;66073;47.730;9.352;2023-05-10T02:53:44;96340.75;;;12.23;88.61
77120;BME280;66073;47.730;9.352;2023-05-10T02:56:23;96347.59;;;12.29;88.27
77120;BME280;66073;47.730;9.352;2023-05-10T02:58:51;96347.44;;;12.20;87.98
77120;BME280;66073;47.730;9.352;2023-05-10T03:01:17;96342.91;;;12.21;88.22
77120;BME280;66073;47.730;9.352;2023-05-10T03:03:42;96344.50;;;12.22;87.86
77120;BME280;66073;47.730;9.352;2023-05-10T03:06:08;96347.66;;;12.24;87.76
77120;BME280;66073;47.730;9.352;2023-05-10T03:08:33;96346.75;;;12.15;87.85
77120;BME280;66073;47.730;9.352;2023-05-10T03:11:23;96351.63;;;12.13;88.19
77120;BME280;66073;47.730;9.352;2023-05-10T03:14:12;96348.38;;;12.29;88.38
77120;BME280;66073;47.730;9.352;2023-05-10T03:17:10;96349.16;;;12.16;87.75
77120;BME280;66073;47.730;9.352;2023-05-10T03:19:55;96351.50;;;12.18;88.34
77120;BME280;66073;47.730;9.352;2023-05-10T03:22:26;96347.19;;;12.22;88.45
77120;BME280;66073;47.730;9.352;2023-05-10T03:24:56;96347.19;;;12.22;88.73
77120;BME280;66073;47.730;9.352;2023-05-10T03:27:26;96347.94;;;12.09;89.00
77120;BME280;66073;47.730;9.352;2023-05-10T03:29:54;96351.94;;;12.25;88.62
77120;BME280;66073;47.730;9.352;2023-05-10T03:32:22;96354.28;;;12.13;88.93
77120;BME280;66073;47.730;9.352;2023-05-10T03:34:47;96356.28;;;12.21;88.55
77120;BME280;66073;47.730;9.352;2023-05-10T03:37:13;96356.69;;;12.28;88.04
77120;BME280;66073;47.730;9.352;2023-05-10T03:39:38;96350.75;;;12.31;87.79
77120;BME280;66073;47.730;9.352;2023-05-10T03:42:04;96353.19;;;12.14;88.05
77120;BME280;66073;47.730;9.352;2023-05-10T03:44:29;96353.94;;;12.01;87.91
77120;BME280;66073;47.730;9.352;2023-05-10T03:46:55;96359.97;;;12.06;88.83
77120;BME280;66073;47.730;9.352;2023-05-10T03:49:22;96357.28;;;12.25;88.43
77120;BME280;66073;47.730;9.352;2023-05-10T03:51:48;96351.50;;;12.18;87.93
77120;BME280;66073;47.730;9.352;2023-05-10T03:54:13;96361.63;;;12.21;88.57
77120;BME280;66073;47.730;9.352;2023-05-10T03:56:38;96362.22;;;12.18;88.18
77120;BME280;66073;47.730;9.352;2023-05-10T03:59:04;96356.13;;;12.31;88.08
77120;BME280;66073;47.730;9.352;2023-05-10T04:01:33;96362.22;;;12.18;87.51
77120;BME280;66073;47.730;9.352;2023-05-10T04:03:59;96358.72;;;12.36;87.26
77120;BME280;66073;47.730;9.352;2023-05-10T04:06:24;96363.09;;;12.46;87.10
77120;BME280;66073;47.730;9.352;2023-05-10T04:08:49;96368.00;;;12.25;87.78
77120;BME280;66073;47.730;9.352;2023-05-10T04:11:15;96367.84;;;12.49;87.94
77120;BME280;66073;47.730;9.352;2023-05-10T04:13:41;96374.19;;;12.39;87.10
77120;BME280;66073;47.730;9.352;2023-05-10T04:16:08;96374.13;;;12.44;86.84
77120;BME280;66073;47.730;9.352;2023-05-10T04:18:34;96367.72;;;12.59;86.61
77120;BME280;66073;47.730;9.352;2023-05-10T04:21:00;96373.13;;;12.54;85.81
77120;BME280;66073;47.730;9.352;2023-05-10T04:23:27;96366.88;;;12.45;87.34
77120;BME280;66073;47.730;9.352;2023-05-10T04:25:52;96369.06;;;12.56;87.32
77120;BME280;66073;47.730;9.352;2023-05-10T04:28:18;96373.22;;;12.49;87.12
77120;BME280;66073;47.730;9.352;2023-05-10T04:30:43;96374.34;;;12.61;86.80
77120;BME280;66073;47.730;9.352;2023-05-10T04:33:09;96373.28;;;12.62;85.44
77120;BME280;66073;47.730;9.352;2023-05-10T04:35:34;96364.91;;;12.50;85.31
77120;BME280;66073;47.730;9.352;2023-05-10T04:38:00;96370.84;;;12.47;85.71
77120;BME280;66073;47.730;9.352;2023-05-10T04:40:25;96372.03;;;12.41;85.90
77120;BME280;66073;47.730;9.352;2023-05-10T04:42:51;96369.63;;;12.39;86.49
77120;BME280;66073;47.730;9.352;2023-05-10T04:45:16;96374.38;;;12.75;85.18
77120;BME280;66073;47.730;9.352;2023-05-10T04:47:42;96367.75;;;12.86;84.30
77120;BME280;66073;47.730;9.352;2023-05-10T04:50:07;96383.03;;;12.85;84.56
77120;BME280;66073;47.730;9.352;2023-05-10T04:52:33;96377.19;;;12.97;82.86
77120;BME280;66073;47.730;9.352;2023-05-10T04:54:58;96378.75;;;12.84;83.53
77120;BME280;66073;47.730;9.352;2023-05-10T04:57:24;96373.19;;;12.81;83.60
77120;BME280;66073;47.730;9.352;2023-05-10T04:59:49;96379.53;;;12.85;82.82
77120;BME280;66073;47.730;9.352;2023-05-10T05:02:15;96382.63;;;12.78;82.89
77120;BME280;66073;47.730;9.352;2023-05-10T05:04:40;96384.56;;;13.05;83.18
77120;BME280;66073;47.730;9.352;2023-05-10T05:07:06;96384.91;;;12.85;82.97
77120;BME280;66073;47.730;9.352;2023-05-10T05:09:31;96381.44;;;12.84;83.03
77120;BME280;66073;47.730;9.352;2023-05-10T05:11:58;96387.19;;;12.78;84.24
77120;BME280;66073;47.730;9.352;2023-05-10T05:14:23;96393.03;;;13.12;82.50
77120;BME280;66073;47.730;9.352;2023-05-10T05:16:53;96391.31;;;13.16;81.96
77120;BME280;66073;47.730;9.352;2023-05-10T05:19:19;96384.25;;;13.07;82.11
77120;BME280;66073;47.730;9.352;2023-05-10T05:21:44;96400.88;;;13.22;81.74
77120;BME280;66073;47.730;9.352;2023-05-10T05:24:10;96392.22;;;13.12;82.51
77120;BME280;66073;47.730;9.352;2023-05-10T05:26:36;96389.47;;;12.84;82.38
77120;BME280;66073;47.730;9.352;2023-05-10T05:29:02;96395.56;;;13.04;83.07
77120;BME280;66073;47.730;9.352;2023-05-10T05:31:28;96386.34;;;13.10;83.09
77120;BME280;66073;47.730;9.352;2023-05-10T05:33:53;96393.22;;;13.16;82.53
77120;BME280;66073;47.730;9.352;2023-05-10T05:36:18;96391.41;;;13.38;82.34
77120;BME280;66073;47.730;9.352;2023-05-10T05:38:44;96399.34;;;13.16;82.74
77120;BME280;66073;47.730;9.352;2023-05-10T05:41:10;96409.91;;;13.40;82.36
77120;BME280;66073;47.730;9.352;2023-05-10T05:43:35;96403.94;;;13.16;82.93
77120;BME280;66073;47.730;9.352;2023-05-10T05:46:01;96405.09;;;13.10;83.34
77120;BME280;66073;47.730;9.352;2023-05-10T05:48:26;96407.84;;;12.91;84.45
77120;BME280;66073;47.730;9.352;2023-05-10T05:50:55;96411.63;;;13.04;84.10
77120;BME280;66073;47.730;9.352;2023-05-10T05:53:22;96420.09;;;13.11;83.85
77120;BME280;66073;47.730;9.352;2023-05-10T05:55:53;96417.34;;;12.83;84.31
77120;BME280;66073;47.730;9.352;2023-05-10T05:58:19;96427.72;;;13.04;84.71
77120;BME280;66073;47.730;9.352;2023-05-10T06:00:45;96428.91;;;12.98;83.91
77120;BME280;66073;47.730;9.352;2023-05-10T06:03:11;96425.22;;;13.07;83.04
77120;BME280;66073;47.730;9.352;2023-05-10T06:05:36;96432.31;;;13.17;83.75
77120;BME280;66073;47.730;9.352;2023-05-10T06:08:02;96427.28;;;12.97;83.43
77120;BME280;66073;47.730;9.352;2023-05-10T06:10:27;96437.00;;;12.92;83.76
77120;BME280;66073;47.730;9.352;2023-05-10T06:12:53;96431.84;;;12.82;83.08
77120;BME280;66073;47.730;9.352;2023-05-10T06:15:18;96443.03;;;12.52;83.37
77120;BME280;66073;47.730;9.352;2023-05-10T06:17:44;96435.91;;;12.48;83.72
77120;BME280;66073;47.730;9.352;2023-05-10T06:20:09;96441.88;;;12.58;83.76
77120;BME280;66073;47.730;9.352;2023-05-10T06:22:35;96442.69;;;12.59;83.47
77120;BME280;66073;47.730;9.352;2023-05-10T06:25:00;96449.53;;;12.97;82.10
77120;BME280;66073;47.730;9.352;2023-05-10T06:27:27;96450.59;;;13.15;81.34
77120;BME280;66073;47.730;9.352;2023-05-10T06:29:52;96453.25;;;12.82;82.61
77120;BME280;66073;47.730;9.352;2023-05-10T06:32:18;96456.97;;;13.00;82.88
77120;BME280;66073;47.730;9.352;2023-05-10T06:34:43;96457.34;;;13.12;82.64
77120;BME280;66073;47.730;9.352;2023-05-10T06:37:09;96452.59;;;12.58;83.15
77120;BME280;66073;47.730;9.352;2023-05-10T06:39:35;96454.06;;;12.83;82.96
77120;BME280;66073;47.730;9.352;2023-05-10T06:42:02;96454.88;;;12.97;82.44
77120;BME280;66073;47.730;9.352;2023-05-10T06:44:28;96466.16;;;13.13;81.95
77120;BME280;66073;47.730;9.352;2023-05-10T06:46:53;96466.63;;;12.69;83.21
77120;BME280;66073;47.730;9.352;2023-05-10T06:49:20;96466.66;;;13.15;81.97
77120;BME280;66073;47.730;9.352;2023-05-10T06:51:45;96467.75;;;13.27;81.49
77120;BME280;66073;47.730;9.352;2023-05-10T06:54:11;96472.34;;;12.95;81.29
77120;BME280;66073;47.730;9.352;2023-05-10T06:56:36;96467.13;;;12.84;81.65
77120;BME280;66073;47.730;9.352;2023-05-10T06:59:02;96470.75;;;12.93;81.87
77120;BME280;66073;47.730;9.352;2023-05-10T07:01:28;96470.66;;;12.99;82.09
77120;BME280;66073;47.730;9.352;2023-05-10T07:03:53;96470.44;;;13.14;81.98
77120;BME280;66073;47.730;9.352;2023-05-10T07:06:19;96473.31;;;12.99;81.63
77120;BME280;66073;47.730;9.352;2023-05-10T07:08:44;96472.03;;;13.15;80.57
77120;BME280;66073;47.730;9.352;2023-05-10T07:11:10;96469.53;;;13.18;80.43
77120;BME280;66073;47.730;9.352;2023-05-10T07:13:35;96477.88;;;13.17;80.85
77120;BME280;66073;47.730;9.352;2023-05-10T07:16:01;96469.56;;;13.00;80.66
77120;BME280;66073;47.730;9.352;2023-05-10T07:18:28;96467.88;;;13.22;80.11
77120;BME280;66073;47.730;9.352;2023-05-10T07:20:54;96477.72;;;12.95;79.33
77120;BME280;66073;47.730;9.352;2023-05-10T07:23:19;96471.16;;;13.01;80.44
77120;BME280;66073;47.730;9.352;2023-05-10T07:25:49;96479.88;;;13.38;78.88
77120;BME280;66073;47.730;9.352;2023-05-10T07:28:17;96474.03;;;13.23;78.92
77120;BME280;66073;47.730;9.352;2023-05-10T07:30:44;96488.34;;;13.46;78.98
77120;BME280;66073;47.730;9.352;2023-05-10T07:33:12;96475.72;;;13.19;80.69
77120;BME280;66073;47.730;9.352;2023-05-10T07:35:37;96483.78;;;13.73;78.48
77120;BME280;66073;47.730;9.352;2023-05-10T07:38:03;96486.56;;;13.55;79.10
77120;BME280;66073;47.730;9.352;2023-05-10T07:40:29;96493.09;;;13.35;78.73
77120;BME280;66073;47.730;9.352;2023-05-10T07:42:55;96490.34;;;13.67;78.84
77120;BME280;66073;47.730;9.352;2023-05-10T07:45:20;96494.19;;;13.34;77.36
77120;BME280;66073;47.730;9.352;2023-05-10T07:47:46;96491.94;;;13.41;76.45
77120;BME280;66073;47.730;9.352;2023-05-10T07:50:11;96494.41;;;13.37;75.72
77120;BME280;66073;47.730;9.352;2023-05-10T07:52:37;96497.78;;;13.43;76.30
77120;BME280;66073;47.730;9.352;2023-05-10T07:55:02;96500.25;;;13.67;74.68
77120;BME280;66073;47.730;9.352;2023-05-10T07:57:28;96485.66;;;13.46;74.09
77120;BME280;66073;47.730;9.352;2023-05-10T07:59:53;96493.41;;;13.74;74.66
77120;BME280;66073;47.730;9.352;2023-05-10T08:02:19;96492.31;;;14.03;75.06
77120;BME280;66073;47.730;9.352;2023-05-10T08:04:44;96489.25;;;13.68;72.87
77120;BME280;66073;47.730;9.352;2023-05-10T08:07:10;96496.09;;;13.61;73.87
77120;BME280;66073;47.730;9.352;2023-05-10T08:09:36;96492.91;;;13.45;74.39
77120;BME280;66073;47.730;9.352;2023-05-10T08:12:01;96493.13;;;13.62;74.88
77120;BME280;66073;47.730;9.352;2023-05-10T08:14:28;96492.63;;;13.87;74.27
77120;BME280;66073;47.730;9.352;2023-05-10T08:16:54;96494.53;;;13.87;75.03
77120;BME280;66073;47.730;9.352;2023-05-10T08:19:20;96488.69;;;14.21;72.93
77120;BME280;66073;47.730;9.352;2023-05-10T08:21:47;96506.22;;;13.77;73.60
77120;BME280;66073;47.730;9.352;2023-05-10T08:24:13;96495.31;;;13.60;73.52
77120;BME280;66073;47.730;9.352;2023-05-10T08:26:38;96513.59;;;13.85;72.62
77120;BME280;66073;47.730;9.352;2023-05-10T08:29:04;96504.13;;;13.88;72.66
77120;BME280;66073;47.730;9.352;2023-05-10T08:31:29;96506.06;;;13.87;72.39
77120;BME280;66073;47.730;9.352;2023-05-10T08:33:55;96505.44;;;13.90;72.04
77120;BME280;66073;47.730;9.352;2023-05-10T08:36:20;96508.19;;;14.26;71.88
77120;BME280;66073;47.730;9.352;2023-05-10T08:38:49;96508.00;;;13.96;72.00
77120;BME280;66073;47.730;9.352;2023-05-10T08:41:16;96499.66;;;14.11;72.40
77120;BME280;66073;47.730;9.352;2023-05-10T08:43:43;96506.59;;;14.25;71.62
77120;BME280;66073;47.730;9.352;2023-05-10T08:46:16;96508.69;;;14.15;71.45
77120;BME280;66073;47.730;9.352;2023-05-10T08:48:46;96512.19;;;14.02;71.24
77120;BME280;66073;47.730;9.352;2023-05-10T08:51:17;96516.19;;;13.90;71.64
77120;BME280;66073;47.730;9.352;2023-05-10T08:53:44;96505.22;;;14.14;70.54
77120;BME280;66073;47.730;9.352;2023-05-10T08:56:10;96506.13;;;14.59;69.67
77120;BME280;66073;47.730;9.352;2023-05-10T08:58:37;96515.44;;;14.75;69.61
77120;BME280;66073;47.730;9.352;2023-05-10T09:01:03;96510.91;;;15.07;69.04
77120;BME280;66073;47.730;9.352;2023-05-10T09:03:30;96509.56;;;14.96;68.33
77120;BME280;66073;47.730;9.352;2023-05-10T09:05:56;96514.22;;;14.81;69.09
77120;BME280;66073;47.730;9.352;2023-05-10T09:08:23;96502.31;;;14.96;67.19
77120;BME280;66073;47.730;9.352;2023-05-10T09:10:51;96507.19;;;14.94;69.89
77120;BME280;66073;47.730;9.352;2023-05-10T09:13:18;96501.53;;;14.60;70.14
77120;BME280;66073;47.730;9.352;2023-05-10T09:15:45;96505.97;;;14.78;72.09
77120;BME280;66073;47.730;9.352;2023-05-10T09:18:11;96506.69;;;15.14;68.13
77120;BME280;66073;47.730;9.352;2023-05-10T09:20:37;96504.13;;;15.62;67.66
77120;BME280;66073;47.730;9.352;2023-05-10T09:23:02;96498.38;;;15.95;66.17
77120;BME280;66073;47.730;9.352;2023-05-10T09:25:28;96504.63;;;14.89;70.11
77120;BME280;66073;47.730;9.352;2023-05-10T09:27:54;96493.78;;;15.25;70.00
77120;BME280;66073;47.730;9.352;2023-05-10T09:30:26;96506.41;;;14.35;70.82
77120;BME280;66073;47.730;9.352;2023-05-10T09:32:53;96504.19;;;14.96;72.51
77120;BME280;66073;47.730;9.352;2023-05-10T09:35:20;96496.13;;;15.49;68.53
77120;BME280;66073;47.730;9.352;2023-05-10T09:37:49;96506.22;;;15.65;67.55
77120;BME280;66073;47.730;9.352;2023-05-10T09:40:19;96504.94;;;15.71;66.99
77120;BME280;66073;47.730;9.352;2023-05-10T09:42:56;96501.75;;;15.61;65.74
77120;BME280;66073;47.730;9.352;2023-05-10T09:45:25;96499.13;;;15.78;65.35
77120;BME280;66073;47.730;9.352;2023-05-10T09:47:52;96503.97;;;15.67;65.06
77120;BME280;66073;47.730;9.352;2023-05-10T09:50:19;96495.19;;;15.22;66.20
77120;BME280;66073;47.730;9.352;2023-05-10T09:55:18;96507.13;;;16.09;63.87
77120;BME280;66073;47.730;9.352;2023-05-10T09:57:44;96507.69;;;15.49;65.35
77120;BME280;66073;47.730;9.352;2023-05-10T10:00:09;96501.34;;;14.56;65.82
77120;BME280;66073;47.730;9.352;2023-05-10T10:02:35;96504.16;;;15.40;64.76
77120;BME280;66073;47.730;9.352;2023-05-10T10:05:02;96506.28;;;15.82;63.77
77120;BME280;66073;47.730;9.352;2023-05-10T10:07:31;96513.75;;;15.32;64.46
77120;BME280;66073;47.730;9.352;2023-05-10T10:09:58;96510.06;;;15.81;64.69
77120;BME280;66073;47.730;9.352;2023-05-10T10:12:25;96511.63;;;15.21;66.73
77120;BME280;66073;47.730;9.352;2023-05-10T10:14:50;96514.03;;;14.78;66.54
77120;BME280;66073;47.730;9.352;2023-05-10T10:17:17;96507.75;;;15.05;67.36
77120;BME280;66073;47.730;9.352;2023-05-10T10:19:43;96518.69;;;15.39;66.37
77120;BME280;66073;47.730;9.352;2023-05-10T10:22:09;96521.66;;;15.51;65.82
77120;BME280;66073;47.730;9.352;2023-05-10T10:24:38;96513.28;;;16.01;62.11
77120;BME280;66073;47.730;9.352;2023-05-10T10:27:24;96516.50;;;16.11;61.09
77120;BME280;66073;47.730;9.352;2023-05-10T10:35:11;96510.78;;;16.13;59.09
77120;BME280;66073;47.730;9.352;2023-05-10T10:37:44;96511.94;;;16.46;59.40
77120;BME280;66073;47.730;9.352;2023-05-10T10:40:30;96496.91;;;16.54;58.83
77120;BME280;66073;47.730;9.352;2023-05-10T10:42:57;96505.03;;;16.71;60.77
77120;BME280;66073;47.730;9.352;2023-05-10T10:45:24;96499.78;;;16.92;59.27
77120;BME280;66073;47.730;9.352;2023-05-10T10:48:19;96512.72;;;16.38;57.56
77120;BME280;66073;47.730;9.352;2023-05-10T10:50:45;96502.59;;;16.44;58.33
77120;BME280;66073;47.730;9.352;2023-05-10T10:53:14;96508.34;;;16.59;57.33
77120;BME280;66073;47.730;9.352;2023-05-10T10:55:48;96504.97;;;16.45;57.27
77120;BME280;66073;47.730;9.352;2023-05-10T10:58:31;96499.84;;;15.61;58.56
77120;BME280;66073;47.730;9.352;2023-05-10T11:01:23;96512.16;;;16.75;58.47
77120;BME280;66073;47.730;9.352;2023-05-10T11:06:31;96505.81;;;15.89;56.87
77120;BME280;66073;47.730;9.352;2023-05-10T11:08:57;96509.22;;;16.12;57.95
77120;BME280;66073;47.730;9.352;2023-05-10T11:11:23;96505.13;;;16.40;56.68
77120;BME280;66073;47.730;9.352;2023-05-10T11:13:49;96514.31;;;16.39;57.03
77120;BME280;66073;47.730;9.352;2023-05-10T11:16:15;96512.91;;;16.33;56.42
77120;BME280;66073;47.730;9.352;2023-05-10T11:21:18;96501.31;;;15.45;58.44
77120;BME280;66073;47.730;9.352;2023-05-10T11:26:13;96523.56;;;15.99;58.98
77120;BME280;66073;47.730;9.352;2023-05-10T11:28:46;96511.75;;;16.17;58.11
77120;BME280;66073;47.730;9.352;2023-05-10T11:31:18;96514.00;;;16.32;58.81
77120;BME280;66073;47.730;9.352;2023-05-10T11:33:55;96516.47;;;16.03;57.39
77120;BME280;66073;47.730;9.352;2023-05-10T11:36:25;96513.47;;;16.13;58.48
77120;BME280;66073;47.730;9.352;2023-05-10T11:38:51;96510.56;;;15.92;56.89
77120;BME280;66073;47.730;9.352;2023-05-10T11:41:18;96510.44;;;15.97;58.97
77120;BME280;66073;47.730;9.352;2023-05-10T11:43:52;96507.34;;;16.38;55.69
77120;BME280;66073;47.730;9.352;2023-05-10T11:46:20;96512.47;;;16.65;54.91
77120;BME280;66073;47.730;9.352;2023-05-10T11:48:50;96520.16;;;16.15;55.14
77120;BME280;66073;47.730;9.352;2023-05-10T11:51:21;96518.59;;;15.75;56.37
77120;BME280;66073;47.730;9.352;2023-05-10T11:53:46;96517.09;;;16.00;56.89
77120;BME280;66073;47.730;9.352;2023-05-10T11:56:12;96515.03;;;15.97;57.38
77120;BME280;66073;47.730;9.352;2023-05-10T11:58:38;96517.06;;;16.56;54.77
77120;BME280;66073;47.730;9.352;2023-05-10T12:01:06;96516.69;;;16.32;54.88
77120;BME280;66073;47.730;9.352;2023-05-10T12:03:32;96523.50;;;16.38;56.42
77120;BME280;66073;47.730;9.352;2023-05-10T12:05:59;96529.22;;;16.36;56.31
77120;BME280;66073;47.730;9.352;2023-05-10T12:08:28;96517.38;;;15.90;55.19
77120;BME280;66073;47.730;9.352;2023-05-10T12:11:07;96519.22;;;15.80;57.97
77120;BME280;66073;47.730;9.352;2023-05-10T12:13:40;96521.22;;;16.06;55.38
77120;BME280;66073;47.730;9.352;2023-05-10T12:16:22;96514.81;;;15.84;56.18
77120;BME280;66073;47.730;9.352;2023-05-10T12:18:49;96514.94;;;16.45;56.16
77120;BME280;66073;47.730;9.352;2023-05-10T12:21:17;96516.47;;;15.41;56.07
77120;BME280;66073;47.730;9.352;2023-05-10T12:23:45;96517.03;;;15.91;55.81
77120;BME280;66073;47.730;9.352;2023-05-10T12:26:11;96523.03;;;15.79;54.46
77120;BME280;66073;47.730;9.352;2023-05-10T12:28:37;96535.97;;;16.08;56.12
77120;BME280;66073;47.730;9.352;2023-05-10T12:31:03;96525.72;;;15.79;55.37
77120;BME280;66073;47.730;9.352;2023-05-10T12:33:40;96529.53;;;15.78;55.53
77120;BME280;66073;47.730;9.352;2023-05-10T12:36:12;96527.88;;;16.08;54.16
77120;BME280;66073;47.730;9.352;2023-05-10T12:38:40;96522.75;;;15.90;54.97
77120;BME280;66073;47.730;9.352;2023-05-10T12:41:18;96529.03;;;16.16;56.45
77120;BME280;66073;47.730;9.352;2023-05-10T12:43:44;96522.56;;;16.43;53.55
77120;BME280;66073;47.730;9.352;2023-05-10T12:46:17;96531.84;;;16.11;52.79
77120;BME280;66073;47.730;9.352;2023-05-10T12:48:44;96521.63;;;16.47;52.75
77120;BME280;66073;47.730;9.352;2023-05-10T12:51:12;96524.66;;;16.63;52.24
77120;BME280;66073;47.730;9.352;2023-05-10T12:53:40;96531.81;;;15.94;53.95
77120;BME280;66073;47.730;9.352;2023-05-10T12:56:06;96515.75;;;15.80;54.37
77120;BME280;66073;47.730;9.352;2023-05-10T12:58:32;96520.53;;;15.92;53.48
77120;BME280;66073;47.730;9.352;2023-05-10T13:00:59;96524.41;;;16.16;54.42
77120;BME280;66073;47.730;9.352;2023-05-10T13:03:24;96522.50;;;16.17;53.66
77120;BME280;66073;47.730;9.352;2023-05-10T13:05:50;96517.38;;;16.55;53.85
77120;BME280;66073;47.730;9.352;2023-05-10T13:08:16;96509.88;;;16.34;52.41
77120;BME280;66073;47.730;9.352;2023-05-10T13:10:41;96513.66;;;16.25;53.63
77120;BME280;66073;47.730;9.352;2023-05-10T13:13:07;96507.41;;;16.72;53.14
77120;BME280;66073;47.730;9.352;2023-05-10T13:15:35;96507.50;;;16.42;52.89
77120;BME280;66073;47.730;9.352;2023-05-10T13:18:01;96511.69;;;16.00;50.71
77120;BME280;66073;47.730;9.352;2023-05-10T13:20:26;96518.69;;;16.01;51.90
77120;BME280;66073;47.730;9.352;2023-05-10T13:22:53;96503.06;;;15.72;51.66
77120;BME280;66073;47.730;9.352;2023-05-10T13:25:18;96511.03;;;15.85;52.22
77120;BME280;66073;47.730;9.352;2023-05-10T13:27:44;96508.91;;;16.22;52.71
77120;BME280;66073;47.730;9.352;2023-05-10T13:30:10;96505.63;;;16.51;52.07
77120;BME280;66073;47.730;9.352;2023-05-10T13:32:37;96502.38;;;15.66;52.10